• Join FlightAware (Why Join?)
  • Login
  • US Flag 
12:51PM EDT


 

Airport Tracker/Info


-or-


 

Live Flight TrackerFlight Track Log ✈ AWE1640 ✈ 07-May-2013 ✈ KATL - KCLT

Flight Track Log - Related Links

Times and Time Zones

All times are in EDT time to prevent confusion due to time zone crossing. See the AWE1640 flight status page for this flight to view local times or setup timezone preferences in your user account.

Time Position Orientation Groundspeed Altitude Reporting Facility
EDT Latitude Longitude Course Direction KTS MPH feet Rate Location/Type
06:16AM 33.6475 -84.4706 101° East 434 499 2,800  Level Atlanta Center
06:17AM 33.6514 -84.5428 274° West 321 369 4,200 1,800 Climbing Atlanta Center
06:18AM 33.6992 -84.5881 322° Northwest 224 258 6,400 2,400 Climbing Atlanta Center
06:19AM 33.7742 -84.5911 358° North 280 322 9,100 2,460 Climbing Atlanta Center
06:20AM 33.8203 -84.5339 46° Northeast 260 299 11,400 1,500 Climbing Atlanta Center
06:21AM 33.8167 -84.4264 92° East 266 306 12,200 1,260 Climbing Atlanta Center
06:22AM 33.6786 -83.8043 101° East  Level FlightAware Approximate
06:22AM 33.7939 -84.3039 103° East 345 397 14,000  Level Atlanta Center
06:23AM 33.7692 -84.1761 103° East 376 433 16,000 2,100 Climbing Atlanta Center
06:24AM 33.7442 -84.0489 103° East 390 449 18,300 1,980 Climbing Atlanta Center
06:25AM 33.7169 -83.9164 104° East 396 456 20,000 1,500 Climbing Atlanta Center
06:26AM 33.6939 -83.7967 103° East 401 461 21,400 1,440 Climbing Atlanta Center
06:27AM 33.6683 -83.6594 103° East 410 472 22,900 1,500 Climbing Atlanta Center
06:28AM 33.7033 -83.5294 72° East 403 464 24,400 1,320 Climbing Atlanta Center
06:29AM 33.7572 -83.4042 63° Northeast 403 464 25,600 1,020 Climbing Atlanta Center
06:30AM 33.8086 -83.2764 64° Northeast 414 476 26,500 660 Climbing Atlanta Center
06:31AM 33.8725 -83.1431 60° Northeast 442 509 27,000 240 Climbing Atlanta Center
06:32AM 33.9444 -83.0122 56° Northeast 461 531 27,000 -60 Level Atlanta Center
06:33AM 34.0164 -82.8833 56° Northeast 467 537 26,900 -540 Descending Atlanta Center
06:34AM 34.0964 -82.7419 56° Northeast 461 531 26,000 -960 Descending Atlanta Center
06:35AM 34.1636 -82.6128 58° Northeast 461 531 25,000 -960 Descending Atlanta Center
06:36AM 34.2250 -82.4936 58° Northeast 461 531 24,100 -540 Descending Atlanta Center
06:37AM 34.2964 -82.3667 56° Northeast 461 531 24,000 -240 Descending Atlanta Center
06:38AM 34.3675 -82.2319 57° Northeast 461 531 23,700 -1,620 Descending Atlanta Center
06:39AM 34.4364 -82.1044 57° Northeast 461 531 20,800 -5,880 Descending Atlanta Center
06:40AM 34.5011 -81.9794 58° Northeast 454 522 12,000 -2,820 Descending Atlanta Center
06:41AM 34.5658 -81.8542 58° Northeast 447 514 15,200 240 Climbing Atlanta Center
06:42AM 34.6283 -81.7392 57° Northeast 420 483 12,500 -2,400 Descending Atlanta Center
06:43AM 34.6506 -81.6956 58° Northeast 406 467 12,100 -660 Descending Atlanta Center
06:43AM 34.6850 -81.6364 55° Northeast 403 464 12,000 -120 Descending Atlanta Center
06:44AM 34.7475 -81.5286 55° Northeast 402 463 12,000  Level Atlanta Center
06:45AM 34.8267 -81.4275 46° Northeast 403 464 12,000 -360 Level Atlanta Center
06:46AM 34.8978 -81.3342 47° Northeast 406 467 11,400 -780 Descending Atlanta Center
06:46AM 34.9097 -81.3186 47° Northeast 393 452 11,100 -1,320 Descending Atlanta Center
06:47AM 34.9728 -81.2353 47° Northeast 399 459 10,100 -1,140 Descending Atlanta Center
06:47AM 34.9847 -81.2197 47° Northeast 393 452 10,000  Descending Atlanta Center
06:48AM 35.0456 -81.1414 46° Northeast 391 450 10,100  Climbing Atlanta Center
06:49AM 35.1481 -81.0642 32° Northeast 326 375 10,100 -660 Level Atlanta Center
06:50AM 35.2317 -81.0739 355° North 278 320 8,700 -1,740 Descending Atlanta Center
06:51AM 35.3092 -81.0814 355° North 279 321 6,700 -2,160 Descending Atlanta Center
06:52AM 35.3803 -81.0839 358° North 278 320 4,400 -1,440 Descending Atlanta Center
06:53AM 35.4164 -81.0239 54° Northeast 232 267 4,000 -480 Descending Atlanta Center